createdAt,value
2023-05-05T00:01:02.376Z,14.03
2023-05-05T00:03:31.110Z,13.72
2023-05-05T00:06:00.295Z,13.40
2023-05-05T00:08:28.729Z,13.73
2023-05-05T00:10:57.736Z,13.34
2023-05-05T00:13:27.642Z,13.73
2023-05-05T00:15:55.958Z,13.90
2023-05-05T00:18:24.371Z,13.30
2023-05-05T00:20:52.877Z,13.56
2023-05-05T00:23:21.490Z,13.73
2023-05-05T00:25:49.865Z,13.65
2023-05-05T00:28:18.262Z,13.18
2023-05-05T00:30:48.017Z,13.05
2023-05-05T00:33:16.870Z,13.55
2023-05-05T00:35:45.248Z,12.91
2023-05-05T00:38:13.641Z,13.21
2023-05-05T00:40:43.188Z,13.34
2023-05-05T00:43:13.113Z,13.36
2023-05-05T00:45:44.327Z,13.31
2023-05-05T00:48:14.328Z,13.50
2023-05-05T00:50:45.046Z,13.18
2023-05-05T00:53:13.815Z,13.17
2023-05-05T00:55:42.228Z,12.44
2023-05-05T00:58:11.289Z,12.78
2023-05-05T01:00:39.706Z,12.60
2023-05-05T01:03:08.132Z,12.90
2023-05-05T01:05:43.916Z,13.15
2023-05-05T01:08:24.047Z,12.92
2023-05-05T01:10:56.641Z,12.60
2023-05-05T01:13:29.549Z,13.39
2023-05-05T01:16:03.376Z,12.82
2023-05-05T01:18:36.455Z,13.33
2023-05-05T01:21:11.326Z,13.71
2023-05-05T01:24:08.906Z,13.24
2023-05-05T01:26:52.659Z,13.00
2023-05-05T01:29:38.543Z,13.12
2023-05-05T01:32:09.791Z,13.15
2023-05-05T01:34:41.629Z,13.20
2023-05-05T01:37:13.703Z,12.83
2023-05-05T01:39:44.228Z,13.23
2023-05-05T01:42:15.184Z,12.84
2023-05-05T01:44:45.042Z,13.10
2023-05-05T01:47:17.511Z,13.04
2023-05-05T01:49:47.887Z,12.89
2023-05-05T01:52:16.669Z,12.62
2023-05-05T01:54:45.726Z,12.60
2023-05-05T01:57:15.069Z,12.60
2023-05-05T01:59:43.630Z,12.64
2023-05-05T02:02:14.087Z,12.62
2023-05-05T02:04:43.622Z,12.50
2023-05-05T02:07:12.868Z,12.43
2023-05-05T02:09:42.370Z,12.39
2023-05-05T02:12:11.374Z,12.34
2023-05-05T02:14:40.670Z,12.18
2023-05-05T02:17:09.768Z,12.15
2023-05-05T02:19:41.266Z,12.23
2023-05-05T02:22:09.663Z,12.35
2023-05-05T02:24:37.937Z,12.53
2023-05-05T02:27:07.822Z,12.43
2023-05-05T02:29:37.801Z,12.49
2023-05-05T02:32:08.486Z,12.88
2023-05-05T02:34:40.337Z,12.76
2023-05-05T02:37:14.154Z,12.95
2023-05-05T02:39:48.517Z,12.65
2023-05-05T02:42:21.751Z,12.14
2023-05-05T02:44:53.283Z,12.21
2023-05-05T02:47:22.140Z,12.47
2023-05-05T02:49:54.306Z,12.77
2023-05-05T02:52:22.539Z,12.38
2023-05-05T02:54:51.205Z,12.56
2023-05-05T02:57:21.903Z,12.07
2023-05-05T03:00:06.025Z,12.18
2023-05-05T03:02:42.966Z,12.30
2023-05-05T03:05:19.716Z,12.29
2023-05-05T03:07:54.794Z,12.15
2023-05-05T03:10:29.161Z,12.05
2023-05-05T03:13:00.540Z,12.17
2023-05-05T03:15:46.307Z,12.07
2023-05-05T03:18:17.772Z,12.07
2023-05-05T03:20:52.642Z,11.91
2023-05-05T03:23:22.989Z,11.84
2023-05-05T03:25:56.781Z,11.98
2023-05-05T03:28:34.979Z,11.94
2023-05-05T03:31:09.589Z,11.69
2023-05-05T03:33:39.494Z,11.98
2023-05-05T03:36:09.243Z,12.07
2023-05-05T03:38:37.595Z,12.14
2023-05-05T03:41:06.202Z,12.08
2023-05-05T03:43:35.575Z,11.93
2023-05-05T03:46:03.993Z,12.15
2023-05-05T03:48:32.362Z,12.02
2023-05-05T03:51:00.767Z,11.99
2023-05-05T03:53:33.017Z,11.99
2023-05-05T03:56:03.658Z,12.09
2023-05-05T03:58:32.370Z,11.53
2023-05-05T04:01:00.776Z,11.69
2023-05-05T04:03:29.222Z,12.08
2023-05-05T04:05:57.501Z,11.94
2023-05-05T04:08:26.016Z,12.00
2023-05-05T04:10:57.488Z,12.08
2023-05-05T04:13:25.809Z,12.12
2023-05-05T04:15:54.466Z,12.05
2023-05-05T04:18:23.371Z,12.09
2023-05-05T04:20:52.189Z,12.06
2023-05-05T04:23:20.994Z,11.99
2023-05-05T04:25:50.335Z,12.23
2023-05-05T04:28:21.833Z,12.32
2023-05-05T04:30:50.901Z,12.28
2023-05-05T04:33:19.712Z,12.38
2023-05-05T04:35:49.941Z,12.36
2023-05-05T04:38:19.553Z,12.55
2023-05-05T04:40:48.621Z,12.78
2023-05-05T04:43:19.885Z,12.76
2023-05-05T04:45:54.850Z,12.91
2023-05-05T04:48:26.237Z,12.94
2023-05-05T04:50:54.631Z,13.23
2023-05-05T04:53:22.957Z,13.23
2023-05-05T04:55:51.146Z,12.96
2023-05-05T04:58:21.285Z,13.45
2023-05-05T05:00:49.626Z,13.87
2023-05-05T05:03:18.161Z,13.70
2023-05-05T05:05:46.870Z,13.37
2023-05-05T05:08:16.953Z,13.69
2023-05-05T05:10:45.410Z,13.38
2023-05-05T05:13:13.854Z,13.59
2023-05-05T05:15:44.062Z,13.58
2023-05-05T05:18:13.273Z,13.88
2023-05-05T05:20:41.748Z,14.10
2023-05-05T05:23:10.507Z,14.05
2023-05-05T05:25:44.655Z,14.28
2023-05-05T05:28:14.253Z,14.56
2023-05-05T05:30:50.052Z,14.45
2023-05-05T05:33:19.041Z,14.75
2023-05-05T05:35:48.080Z,14.73
2023-05-05T05:38:18.087Z,15.43
2023-05-05T05:40:47.478Z,15.16
2023-05-05T05:43:16.003Z,15.60
2023-05-05T05:45:44.633Z,15.75
2023-05-05T05:48:14.731Z,15.43
2023-05-05T05:50:43.422Z,16.07
2023-05-05T05:53:11.621Z,16.40
2023-05-05T05:55:40.114Z,16.55
2023-05-05T05:58:09.991Z,16.58
2023-05-05T06:00:38.306Z,16.80
2023-05-05T06:03:10.152Z,16.64
2023-05-05T06:05:41.776Z,16.56
2023-05-05T06:08:10.579Z,16.81
2023-05-05T06:10:43.939Z,17.25
2023-05-05T06:13:17.193Z,17.16
2023-05-05T06:15:48.946Z,17.61
2023-05-05T06:18:18.160Z,17.75
2023-05-05T06:20:50.578Z,17.80
2023-05-05T06:23:19.888Z,18.01
2023-05-05T06:25:54.950Z,18.31
2023-05-05T06:28:23.300Z,18.49
2023-05-05T06:30:51.867Z,18.45
2023-05-05T06:33:20.248Z,18.73
2023-05-05T06:35:50.092Z,19.06
2023-05-05T06:38:18.529Z,18.69
2023-05-05T06:40:49.812Z,18.98
2023-05-05T06:43:19.506Z,19.27
2023-05-05T06:45:55.713Z,19.20
2023-05-05T06:48:24.128Z,18.91
2023-05-05T06:50:54.195Z,19.06
2023-05-05T06:53:22.466Z,19.28
2023-05-05T06:55:50.891Z,19.32
2023-05-05T06:58:19.193Z,19.55
2023-05-05T07:00:47.532Z,19.74
2023-05-05T07:03:15.775Z,19.72
2023-05-05T07:05:44.017Z,19.92
2023-05-05T07:08:14.366Z,19.93
2023-05-05T07:10:42.943Z,20.03
2023-05-05T07:13:12.823Z,19.83
2023-05-05T07:15:46.325Z,20.11
2023-05-05T07:18:16.080Z,20.16
2023-05-05T07:20:44.884Z,20.22
2023-05-05T07:23:15.099Z,20.36
2023-05-05T07:25:44.613Z,19.78
2023-05-05T07:28:13.096Z,19.81
2023-05-05T07:30:41.574Z,20.01
2023-05-05T07:33:11.307Z,20.31
2023-05-05T07:35:39.605Z,20.36
2023-05-05T07:38:08.710Z,20.43
2023-05-05T07:40:39.831Z,20.57
2023-05-05T07:43:08.098Z,20.77
2023-05-05T07:45:36.390Z,20.96
2023-05-05T07:48:04.890Z,20.82
2023-05-05T07:50:33.123Z,20.60
2023-05-05T07:53:10.826Z,20.97
2023-05-05T07:55:43.777Z,21.26
2023-05-05T07:58:12.131Z,21.47
2023-05-05T08:00:41.062Z,21.20
2023-05-05T08:03:11.580Z,21.43
2023-05-05T08:05:40.957Z,21.30
2023-05-05T08:08:09.210Z,21.08
2023-05-05T08:10:37.447Z,21.04
2023-05-05T08:13:07.053Z,21.46
2023-05-05T08:15:35.362Z,21.37
2023-05-05T08:18:03.597Z,21.34
2023-05-05T08:20:32.697Z,21.45
2023-05-05T08:23:01.071Z,21.43
2023-05-05T08:25:29.401Z,21.86
2023-05-05T08:27:57.682Z,21.82
2023-05-05T08:30:31.685Z,21.90
2023-05-05T08:33:00.731Z,21.86
2023-05-05T08:35:30.119Z,22.15
2023-05-05T08:37:59.211Z,22.35
2023-05-05T08:40:34.851Z,22.03
2023-05-05T08:43:03.142Z,22.09
2023-05-05T08:45:34.064Z,22.22
2023-05-05T08:48:03.698Z,21.97
2023-05-05T08:50:33.034Z,22.31
2023-05-05T08:53:11.551Z,22.35
2023-05-05T08:55:47.630Z,22.53
2023-05-05T08:58:16.935Z,22.77
2023-05-05T09:00:47.714Z,22.84
2023-05-05T09:03:17.449Z,22.86
2023-05-05T09:05:46.131Z,22.87
2023-05-05T09:08:14.550Z,23.45
2023-05-05T09:10:43.573Z,23.64
2023-05-05T09:13:11.936Z,23.85
2023-05-05T09:15:41.468Z,24.31
2023-05-05T09:18:12.239Z,24.30
2023-05-05T09:20:41.088Z,23.99
2023-05-05T09:23:10.666Z,24.62
2023-05-05T09:25:39.512Z,24.76
2023-05-05T09:28:12.349Z,24.95
2023-05-05T09:30:41.781Z,25.29
2023-05-05T09:33:12.307Z,25.06
2023-05-05T09:35:51.520Z,24.87
2023-05-05T09:38:19.992Z,25.05
2023-05-05T09:40:49.756Z,25.52
2023-05-05T09:43:19.156Z,25.67
2023-05-05T09:45:48.874Z,25.46
2023-05-05T09:48:29.262Z,25.88
2023-05-05T09:50:58.394Z,26.26
2023-05-05T09:53:27.598Z,26.39
2023-05-05T09:55:56.820Z,26.34
2023-05-05T09:58:25.954Z,26.99
2023-05-05T10:00:56.209Z,27.70
2023-05-05T10:03:24.793Z,27.71
2023-05-05T10:05:55.853Z,27.50
2023-05-05T10:08:25.201Z,27.48
2023-05-05T10:10:55.207Z,27.79
2023-05-05T10:13:25.124Z,28.23
2023-05-05T10:15:54.719Z,28.13
2023-05-05T10:18:25.035Z,27.98
2023-05-05T10:20:58.383Z,28.30
2023-05-05T10:23:30.839Z,28.86
2023-05-05T10:26:02.717Z,28.24
2023-05-05T10:28:34.342Z,27.88
2023-05-05T10:31:09.994Z,28.11
2023-05-05T10:33:50.836Z,28.09
2023-05-05T10:36:23.403Z,28.60
2023-05-05T10:38:51.618Z,29.24
2023-05-05T10:41:19.988Z,29.15
2023-05-05T10:43:49.126Z,28.81
2023-05-05T10:46:17.487Z,29.21
2023-05-05T10:48:56.189Z,28.91
2023-05-05T10:51:40.065Z,29.82
2023-05-05T10:54:13.901Z,29.64
2023-05-05T10:56:43.149Z,29.78
2023-05-05T10:59:42.881Z,30.03
2023-05-05T11:02:24.227Z,30.10
2023-05-05T11:05:15.282Z,29.71
2023-05-05T11:07:51.283Z,30.06
2023-05-05T11:10:21.185Z,30.58
2023-05-05T11:13:23.679Z,30.85
2023-05-05T11:15:54.273Z,30.21
2023-05-05T11:18:39.528Z,30.15
2023-05-05T11:21:16.650Z,30.48
2023-05-05T11:23:55.662Z,30.77
2023-05-05T11:26:52.478Z,30.78
2023-05-05T11:29:20.664Z,30.83
2023-05-05T11:32:12.716Z,30.73
2023-05-05T11:34:49.889Z,30.59
2023-05-05T11:37:18.131Z,31.24
2023-05-05T11:39:55.683Z,30.52
2023-05-05T11:42:28.147Z,30.12
2023-05-05T11:44:57.983Z,30.56
2023-05-05T11:47:31.346Z,31.20
2023-05-05T11:50:00.199Z,30.58
2023-05-05T11:52:28.853Z,31.08
2023-05-05T11:55:03.830Z,31.65
2023-05-05T11:57:32.436Z,31.12
2023-05-05T12:00:02.120Z,31.21
2023-05-05T12:02:35.267Z,31.09
2023-05-05T12:05:03.820Z,31.62
2023-05-05T12:07:33.306Z,31.77
2023-05-05T12:10:02.967Z,32.47
2023-05-05T12:12:39.418Z,31.77
2023-05-05T12:15:09.269Z,31.35
2023-05-05T12:17:40.832Z,31.42
2023-05-05T12:20:10.447Z,30.93
2023-05-05T12:22:39.405Z,31.16
2023-05-05T12:25:10.404Z,31.71
2023-05-05T12:27:41.610Z,32.69
2023-05-05T12:30:15.728Z,32.37
2023-05-05T12:32:44.899Z,31.42
2023-05-05T12:35:13.655Z,32.48
2023-05-05T12:37:42.185Z,32.69
2023-05-05T12:40:46.402Z,31.84
2023-05-05T12:43:31.469Z,32.03
2023-05-05T12:46:05.099Z,32.64
2023-05-05T12:48:34.227Z,33.25
2023-05-05T12:51:13.149Z,33.24
2023-05-05T12:53:41.834Z,32.42
2023-05-05T12:56:33.109Z,33.27
2023-05-05T12:59:01.507Z,33.61
2023-05-05T13:01:29.925Z,32.97
2023-05-05T13:04:08.545Z,32.49
2023-05-05T13:06:37.786Z,32.42
2023-05-05T13:09:06.350Z,33.25
2023-05-05T13:11:39.988Z,33.81
2023-05-05T13:14:09.666Z,33.49
2023-05-05T13:16:37.883Z,33.92
2023-05-05T13:19:06.034Z,33.51
2023-05-05T13:21:34.521Z,33.07
2023-05-05T13:24:20.784Z,33.52
2023-05-05T13:26:52.879Z,32.96
2023-05-05T13:29:21.104Z,32.96
2023-05-05T13:31:50.011Z,33.67
2023-05-05T13:34:18.224Z,32.72
2023-05-05T13:36:46.529Z,32.97
2023-05-05T13:39:14.777Z,33.06
2023-05-05T13:41:44.799Z,33.20
2023-05-05T13:44:15.488Z,33.07
2023-05-05T13:46:43.827Z,32.76
2023-05-05T13:49:12.143Z,32.80
2023-05-05T13:51:40.562Z,33.44
2023-05-05T13:54:08.743Z,33.14
2023-05-05T13:56:37.584Z,33.11
2023-05-05T13:59:06.014Z,33.30
2023-05-05T14:01:36.002Z,33.35
2023-05-05T14:04:06.233Z,33.16
2023-05-05T14:06:35.799Z,32.66
2023-05-05T14:09:06.249Z,32.65
2023-05-05T14:11:34.830Z,32.40
2023-05-05T14:14:04.067Z,31.64
2023-05-05T14:16:32.383Z,32.13
2023-05-05T14:19:08.150Z,32.28
2023-05-05T14:21:45.247Z,31.85
2023-05-05T14:24:13.514Z,32.39
2023-05-05T14:26:43.699Z,32.59
2023-05-05T14:29:15.749Z,32.96
2023-05-05T14:31:45.945Z,32.64
2023-05-05T14:34:17.076Z,32.92
2023-05-05T14:36:48.209Z,33.02
2023-05-05T14:39:17.064Z,33.30
2023-05-05T14:41:46.609Z,32.90
2023-05-05T14:44:18.720Z,32.42
2023-05-05T14:46:51.056Z,32.68
2023-05-05T14:49:24.126Z,32.71
2023-05-05T14:51:56.693Z,32.31
2023-05-05T14:54:31.620Z,32.33
2023-05-05T14:57:00.907Z,33.16
2023-05-05T14:59:30.649Z,33.05
2023-05-05T15:02:01.764Z,33.11
2023-05-05T15:04:38.135Z,33.23
2023-05-05T15:07:09.769Z,33.23
2023-05-05T15:09:38.486Z,32.93
2023-05-05T15:12:09.255Z,32.87
2023-05-05T15:14:40.424Z,32.37
2023-05-05T15:17:09.173Z,32.16
2023-05-05T15:19:43.370Z,31.34
2023-05-05T15:22:13.953Z,31.86
2023-05-05T15:24:42.537Z,31.98
2023-05-05T15:27:11.071Z,32.06
2023-05-05T15:29:42.129Z,31.83
2023-05-05T15:32:10.344Z,31.99
2023-05-05T15:34:39.854Z,32.32
2023-05-05T15:37:08.300Z,31.85
2023-05-05T15:39:36.631Z,32.55
2023-05-05T15:42:08.074Z,32.62
2023-05-05T15:44:36.266Z,32.60
2023-05-05T15:47:06.654Z,32.32
2023-05-05T15:49:35.340Z,31.42
2023-05-05T15:52:06.489Z,31.44
2023-05-05T15:54:34.733Z,31.42
2023-05-05T15:57:08.193Z,31.24
2023-05-05T15:59:37.396Z,31.35
2023-05-05T16:02:06.209Z,31.04
2023-05-05T16:04:34.792Z,30.47
2023-05-05T16:07:03.854Z,30.52
2023-05-05T16:09:33.701Z,30.60
2023-05-05T16:12:02.754Z,31.03
2023-05-05T16:14:32.154Z,31.12
2023-05-05T16:17:03.060Z,31.50
2023-05-05T16:19:31.377Z,31.19
2023-05-05T16:21:59.934Z,31.08
2023-05-05T16:24:29.091Z,30.36
2023-05-05T16:26:59.394Z,29.67
2023-05-05T16:29:27.642Z,29.92
2023-05-05T16:31:55.822Z,30.34
2023-05-05T16:34:24.163Z,30.57
2023-05-05T16:36:53.420Z,30.11
2023-05-05T16:39:22.110Z,29.76
2023-05-05T16:41:50.466Z,29.78
2023-05-05T16:44:20.386Z,29.84
2023-05-05T16:46:48.673Z,29.68
2023-05-05T16:49:17.215Z,29.58
2023-05-05T16:51:45.465Z,29.64
2023-05-05T16:54:13.565Z,29.07
2023-05-05T16:56:42.155Z,28.25
2023-05-05T16:59:10.355Z,28.26
2023-05-05T17:01:43.445Z,28.45
2023-05-05T17:04:12.980Z,27.91
2023-05-05T17:06:42.498Z,27.88
2023-05-05T17:09:12.532Z,27.87
2023-05-05T17:11:40.720Z,27.37
2023-05-05T17:14:08.946Z,27.75
2023-05-05T17:16:38.149Z,27.33
2023-05-05T17:19:07.785Z,27.25
2023-05-05T17:21:36.381Z,27.47
2023-05-05T17:24:04.802Z,27.15
2023-05-05T17:26:33.006Z,26.90
2023-05-05T17:29:01.964Z,26.70
2023-05-05T17:31:30.190Z,26.42
2023-05-05T17:33:58.399Z,26.20
2023-05-05T17:36:27.962Z,26.14
2023-05-05T17:38:56.161Z,25.94
2023-05-05T17:41:26.007Z,25.76
2023-05-05T17:43:54.212Z,25.46
2023-05-05T17:46:27.458Z,25.13
2023-05-05T17:48:55.886Z,25.03
2023-05-05T17:51:25.241Z,24.83
2023-05-05T17:53:55.872Z,24.67
2023-05-05T17:56:24.149Z,24.75
2023-05-05T17:58:52.593Z,24.62
2023-05-05T18:01:24.688Z,24.42
2023-05-05T18:03:53.482Z,24.45
2023-05-05T18:06:21.810Z,24.20
2023-05-05T18:08:50.253Z,24.10
2023-05-05T18:11:28.150Z,24.04
2023-05-05T18:13:59.376Z,23.90
2023-05-05T18:16:28.225Z,23.87
2023-05-05T18:18:58.581Z,23.73
2023-05-05T18:21:27.406Z,23.58
2023-05-05T18:24:04.601Z,23.49
2023-05-05T18:26:57.285Z,23.55
2023-05-05T18:29:28.668Z,23.57
2023-05-05T18:31:57.813Z,23.49
2023-05-05T18:34:26.896Z,23.50
2023-05-05T18:36:55.960Z,23.33
2023-05-05T18:39:25.378Z,23.27
2023-05-05T18:41:56.367Z,23.18
2023-05-05T18:44:27.040Z,22.98
2023-05-05T18:46:56.300Z,22.78
2023-05-05T18:49:25.808Z,22.79
2023-05-05T18:51:57.102Z,22.64
2023-05-05T18:54:28.542Z,22.71
2023-05-05T18:57:00.336Z,22.69
2023-05-05T18:59:32.210Z,22.59
2023-05-05T19:02:01.685Z,22.47
2023-05-05T19:04:37.085Z,22.41
2023-05-05T19:07:06.845Z,22.31
2023-05-05T19:09:36.815Z,22.24
2023-05-05T19:12:08.206Z,22.25
2023-05-05T19:14:37.852Z,22.07
2023-05-05T19:17:08.816Z,22.17
2023-05-05T19:19:39.729Z,22.14
2023-05-05T19:22:10.252Z,22.06
2023-05-05T19:24:39.594Z,21.77
2023-05-05T19:27:16.378Z,21.58
2023-05-05T19:29:46.335Z,22.37
2023-05-05T19:32:16.101Z,22.19
2023-05-05T19:34:46.555Z,22.07
2023-05-05T19:37:16.053Z,21.89
2023-05-05T19:39:46.277Z,21.70
2023-05-05T19:42:17.648Z,21.72
2023-05-05T19:44:46.997Z,22.01
2023-05-05T19:47:16.209Z,22.17
2023-05-05T19:49:45.814Z,21.86
2023-05-05T19:52:14.966Z,21.56
2023-05-05T19:54:44.529Z,21.59
2023-05-05T19:57:13.888Z,21.58
2023-05-05T19:59:49.584Z,21.68
2023-05-05T20:02:19.003Z,21.79
2023-05-05T20:04:49.111Z,22.05
2023-05-05T20:07:18.553Z,21.89
2023-05-05T20:09:48.523Z,22.13
2023-05-05T20:12:20.099Z,21.31
2023-05-05T20:14:51.028Z,21.43
2023-05-05T20:17:20.802Z,21.08
2023-05-05T20:19:53.868Z,21.05
2023-05-05T20:22:27.645Z,20.65
2023-05-05T20:24:56.778Z,20.84
2023-05-05T20:27:26.731Z,20.75
2023-05-05T20:29:59.235Z,20.63
2023-05-05T20:32:29.279Z,20.35
2023-05-05T20:34:58.393Z,20.47
2023-05-05T20:37:27.662Z,20.17
2023-05-05T20:39:56.930Z,20.34
2023-05-05T20:42:27.867Z,20.62
2023-05-05T20:44:56.782Z,20.44
2023-05-05T20:47:27.162Z,20.04
2023-05-05T20:49:55.782Z,20.27
2023-05-05T20:52:25.658Z,20.04
2023-05-05T20:54:54.145Z,19.85
2023-05-05T20:57:22.531Z,19.96
2023-05-05T20:59:51.040Z,20.15
2023-05-05T21:02:20.086Z,19.52
2023-05-05T21:04:49.763Z,19.54
2023-05-05T21:07:20.838Z,19.68
2023-05-05T21:09:49.279Z,19.51
2023-05-05T21:12:17.694Z,19.58
2023-05-05T21:14:45.964Z,19.48
2023-05-05T21:17:14.085Z,19.53
2023-05-05T21:19:42.337Z,19.24
2023-05-05T21:22:11.848Z,19.36
2023-05-05T21:24:40.786Z,19.36
2023-05-05T21:27:08.980Z,19.42
2023-05-05T21:29:38.562Z,19.32
2023-05-05T21:32:08.570Z,19.32
2023-05-05T21:34:37.327Z,19.60
2023-05-05T21:37:06.162Z,19.21
2023-05-05T21:39:37.852Z,19.10
2023-05-05T21:42:06.159Z,19.46
2023-05-05T21:44:34.467Z,19.37
2023-05-05T21:47:02.774Z,18.94
2023-05-05T21:49:31.098Z,19.31
2023-05-05T21:51:59.471Z,19.54
2023-05-05T21:54:27.753Z,19.47
2023-05-05T21:56:57.299Z,19.02
2023-05-05T21:59:25.469Z,18.97
2023-05-05T22:01:53.751Z,19.08
2023-05-05T22:04:22.296Z,19.31
2023-05-05T22:06:50.413Z,18.90
2023-05-05T22:09:19.572Z,18.61
2023-05-05T22:11:47.820Z,18.93
2023-05-05T22:14:21.450Z,18.33
2023-05-05T22:16:49.651Z,18.13
2023-05-05T22:19:18.117Z,18.81
2023-05-05T22:21:46.259Z,18.71
2023-05-05T22:24:14.492Z,18.44
2023-05-05T22:26:43.522Z,18.58
2023-05-05T22:29:12.062Z,18.57
2023-05-05T22:31:42.143Z,18.85
2023-05-05T22:34:14.658Z,18.74
2023-05-05T22:36:43.119Z,18.22
2023-05-05T22:39:11.850Z,18.26
2023-05-05T22:41:39.992Z,18.30
2023-05-05T22:44:08.846Z,18.11
2023-05-05T22:46:37.411Z,17.89
2023-05-05T22:49:07.007Z,18.15
2023-05-05T22:51:35.374Z,18.25
2023-05-05T22:54:03.559Z,18.07
2023-05-05T22:56:31.740Z,18.19
2023-05-05T22:58:59.970Z,18.19
2023-05-05T23:01:28.184Z,18.45
2023-05-05T23:03:56.609Z,18.00
2023-05-05T23:06:26.180Z,17.83
2023-05-05T23:08:54.439Z,17.82
2023-05-05T23:11:22.685Z,17.98
2023-05-05T23:13:50.976Z,18.43
2023-05-05T23:16:19.148Z,17.94
2023-05-05T23:18:47.417Z,17.18
2023-05-05T23:21:15.703Z,17.96
2023-05-05T23:23:45.365Z,18.10
2023-05-05T23:26:14.348Z,17.95
2023-05-05T23:28:42.475Z,17.67
2023-05-05T23:31:10.706Z,17.90
2023-05-05T23:33:38.817Z,17.94
2023-05-05T23:36:07.298Z,17.38
2023-05-05T23:38:35.554Z,17.28
2023-05-05T23:41:05.603Z,17.56
2023-05-05T23:43:33.902Z,17.38
2023-05-05T23:46:02.188Z,17.51
2023-05-05T23:48:30.616Z,17.50
2023-05-05T23:50:58.735Z,17.48
2023-05-05T23:53:28.286Z,17.67
2023-05-05T23:55:56.723Z,17.75
2023-05-05T23:58:26.603Z,17.46
